sensor_id;sensor_type;location;lat;lon;timestamp;P1;durP1;ratioP1;P2;durP2;ratioP2
64282;SDS011;50497;50.720;-2.084;2022-08-24T00:01:56;11.35;;;3.78;;
64282;SDS011;50497;50.720;-2.084;2022-08-24T00:04:21;10.55;;;4.05;;
64282;SDS011;50497;50.720;-2.084;2022-08-24T00:06:48;11.77;;;4.10;;
64282;SDS011;50497;50.720;-2.084;2022-08-24T00:11:40;10.68;;;4.18;;
64282;SDS011;50497;50.720;-2.084;2022-08-24T00:14:06;10.50;;;3.67;;
64282;SDS011;50497;50.720;-2.084;2022-08-24T00:16:32;11.05;;;3.75;;
64282;SDS011;50497;50.720;-2.084;2022-08-24T00:18:59;8.38;;;3.20;;
64282;SDS011;50497;50.720;-2.084;2022-08-24T00:21:25;8.77;;;3.53;;
64282;SDS011;50497;50.720;-2.084;2022-08-24T00:23:51;9.73;;;3.63;;
64282;SDS011;50497;50.720;-2.084;2022-08-24T00:26:17;10.50;;;3.80;;
64282;SDS011;50497;50.720;-2.084;2022-08-24T00:28:42;9.13;;;4.15;;
64282;SDS011;50497;50.720;-2.084;2022-08-24T00:31:08;11.13;;;4.25;;
64282;SDS011;50497;50.720;-2.084;2022-08-24T00:36:00;9.35;;;3.78;;
64282;SDS011;50497;50.720;-2.084;2022-08-24T00:38:26;13.38;;;4.18;;
64282;SDS011;50497;50.720;-2.084;2022-08-24T00:40:51;10.45;;;4.30;;
64282;SDS011;50497;50.720;-2.084;2022-08-24T00:43:21;12.52;;;4.45;;
64282;SDS011;50497;50.720;-2.084;2022-08-24T00:48:33;11.77;;;4.05;;
64282;SDS011;50497;50.720;-2.084;2022-08-24T00:51:09;9.90;;;4.10;;
64282;SDS011;50497;50.720;-2.084;2022-08-24T00:53:40;8.20;;;3.20;;
64282;SDS011;50497;50.720;-2.084;2022-08-24T00:56:12;9.52;;;3.75;;
64282;SDS011;50497;50.720;-2.084;2022-08-24T00:58:45;10.07;;;3.55;;
64282;SDS011;50497;50.720;-2.084;2022-08-24T01:01:16;8.27;;;3.50;;
64282;SDS011;50497;50.720;-2.084;2022-08-24T01:03:43;8.93;;;3.50;;
64282;SDS011;50497;50.720;-2.084;2022-08-24T01:06:10;9.63;;;3.63;;
64282;SDS011;50497;50.720;-2.084;2022-08-24T01:08:37;7.75;;;2.88;;
64282;SDS011;50497;50.720;-2.084;2022-08-24T01:11:14;7.55;;;3.00;;
64282;SDS011;50497;50.720;-2.084;2022-08-24T01:13:44;7.22;;;2.60;;
64282;SDS011;50497;50.720;-2.084;2022-08-24T01:16:12;7.05;;;2.60;;
64282;SDS011;50497;50.720;-2.084;2022-08-24T01:18:39;7.93;;;2.80;;
64282;SDS011;50497;50.720;-2.084;2022-08-24T01:21:21;6.32;;;2.80;;
64282;SDS011;50497;50.720;-2.084;2022-08-24T01:23:54;7.38;;;2.63;;
64282;SDS011;50497;50.720;-2.084;2022-08-24T01:26:24;6.63;;;2.58;;
64282;SDS011;50497;50.720;-2.084;2022-08-24T01:29:07;6.45;;;2.55;;
64282;SDS011;50497;50.720;-2.084;2022-08-24T01:31:35;6.50;;;2.20;;
64282;SDS011;50497;50.720;-2.084;2022-08-24T01:34:00;5.63;;;2.40;;
64282;SDS011;50497;50.720;-2.084;2022-08-24T01:36:31;6.72;;;2.40;;
64282;SDS011;50497;50.720;-2.084;2022-08-24T01:39:02;7.32;;;2.35;;
64282;SDS011;50497;50.720;-2.084;2022-08-24T01:41:33;6.18;;;2.60;;
64282;SDS011;50497;50.720;-2.084;2022-08-24T01:43:59;6.93;;;2.58;;
64282;SDS011;50497;50.720;-2.084;2022-08-24T01:46:25;8.00;;;3.05;;
64282;SDS011;50497;50.720;-2.084;2022-08-24T01:48:51;7.65;;;2.90;;
64282;SDS011;50497;50.720;-2.084;2022-08-24T01:51:17;8.10;;;2.80;;
64282;SDS011;50497;50.720;-2.084;2022-08-24T01:53:45;7.40;;;2.97;;
64282;SDS011;50497;50.720;-2.084;2022-08-24T01:56:10;8.88;;;3.28;;
64282;SDS011;50497;50.720;-2.084;2022-08-24T01:58:41;6.97;;;2.97;;
64282;SDS011;50497;50.720;-2.084;2022-08-24T02:01:08;7.22;;;3.20;;
64282;SDS011;50497;50.720;-2.084;2022-08-24T02:03:33;6.55;;;2.83;;
64282;SDS011;50497;50.720;-2.084;2022-08-24T02:05:59;6.45;;;2.50;;
64282;SDS011;50497;50.720;-2.084;2022-08-24T02:08:24;6.35;;;2.70;;
64282;SDS011;50497;50.720;-2.084;2022-08-24T02:10:50;6.22;;;2.65;;
64282;SDS011;50497;50.720;-2.084;2022-08-24T02:13:15;6.45;;;2.80;;
64282;SDS011;50497;50.720;-2.084;2022-08-24T02:15:41;6.22;;;2.90;;
64282;SDS011;50497;50.720;-2.084;2022-08-24T02:18:10;7.18;;;2.70;;
64282;SDS011;50497;50.720;-2.084;2022-08-24T02:23:01;8.25;;;2.97;;
64282;SDS011;50497;50.720;-2.084;2022-08-24T02:25:28;7.55;;;3.55;;
64282;SDS011;50497;50.720;-2.084;2022-08-24T02:27:55;7.50;;;3.17;;
64282;SDS011;50497;50.720;-2.084;2022-08-24T02:30:22;8.98;;;3.28;;
64282;SDS011;50497;50.720;-2.084;2022-08-24T02:32:47;7.75;;;3.70;;
64282;SDS011;50497;50.720;-2.084;2022-08-24T02:35:13;6.55;;;2.90;;
64282;SDS011;50497;50.720;-2.084;2022-08-24T02:37:38;7.13;;;3.40;;
64282;SDS011;50497;50.720;-2.084;2022-08-24T02:40:04;7.07;;;3.25;;
64282;SDS011;50497;50.720;-2.084;2022-08-24T02:42:31;6.90;;;3.20;;
64282;SDS011;50497;50.720;-2.084;2022-08-24T02:44:58;8.65;;;3.78;;
64282;SDS011;50497;50.720;-2.084;2022-08-24T02:47:25;7.70;;;3.47;;
64282;SDS011;50497;50.720;-2.084;2022-08-24T02:49:50;7.22;;;3.53;;
64282;SDS011;50497;50.720;-2.084;2022-08-24T02:52:16;9.48;;;4.10;;
64282;SDS011;50497;50.720;-2.084;2022-08-24T02:54:41;9.32;;;4.40;;
64282;SDS011;50497;50.720;-2.084;2022-08-24T02:57:07;10.40;;;4.38;;
64282;SDS011;50497;50.720;-2.084;2022-08-24T02:59:32;10.20;;;4.43;;
64282;SDS011;50497;50.720;-2.084;2022-08-24T03:01:58;9.60;;;4.20;;
64282;SDS011;50497;50.720;-2.084;2022-08-24T03:04:24;9.80;;;4.32;;
64282;SDS011;50497;50.720;-2.084;2022-08-24T03:06:49;10.75;;;3.65;;
64282;SDS011;50497;50.720;-2.084;2022-08-24T03:09:15;9.32;;;3.83;;
64282;SDS011;50497;50.720;-2.084;2022-08-24T03:11:41;9.65;;;3.67;;
64282;SDS011;50497;50.720;-2.084;2022-08-24T03:14:06;7.32;;;3.47;;
64282;SDS011;50497;50.720;-2.084;2022-08-24T03:16:32;8.90;;;3.33;;
64282;SDS011;50497;50.720;-2.084;2022-08-24T03:18:58;7.68;;;3.63;;
64282;SDS011;50497;50.720;-2.084;2022-08-24T03:21:24;11.63;;;3.60;;
64282;SDS011;50497;50.720;-2.084;2022-08-24T03:23:50;7.80;;;3.03;;
64282;SDS011;50497;50.720;-2.084;2022-08-24T03:26:16;6.38;;;3.20;;
64282;SDS011;50497;50.720;-2.084;2022-08-24T03:28:42;7.70;;;3.58;;
64282;SDS011;50497;50.720;-2.084;2022-08-24T03:31:07;6.65;;;3.30;;
64282;SDS011;50497;50.720;-2.084;2022-08-24T03:33:33;8.02;;;3.45;;
64282;SDS011;50497;50.720;-2.084;2022-08-24T03:35:58;6.85;;;3.20;;
64282;SDS011;50497;50.720;-2.084;2022-08-24T03:38:24;6.75;;;3.20;;
64282;SDS011;50497;50.720;-2.084;2022-08-24T03:40:50;8.60;;;3.30;;
64282;SDS011;50497;50.720;-2.084;2022-08-24T03:43:16;8.77;;;3.67;;
64282;SDS011;50497;50.720;-2.084;2022-08-24T03:46:00;7.72;;;3.50;;
64282;SDS011;50497;50.720;-2.084;2022-08-24T03:48:27;6.07;;;2.60;;
64282;SDS011;50497;50.720;-2.084;2022-08-24T03:50:54;6.43;;;2.42;;
64282;SDS011;50497;50.720;-2.084;2022-08-24T03:53:20;5.18;;;2.17;;
64282;SDS011;50497;50.720;-2.084;2022-08-24T03:55:47;5.20;;;2.22;;
64282;SDS011;50497;50.720;-2.084;2022-08-24T03:58:12;6.50;;;2.50;;
64282;SDS011;50497;50.720;-2.084;2022-08-24T04:00:38;6.70;;;2.65;;
64282;SDS011;50497;50.720;-2.084;2022-08-24T04:03:10;5.68;;;2.65;;
64282;SDS011;50497;50.720;-2.084;2022-08-24T04:05:38;6.18;;;2.78;;
64282;SDS011;50497;50.720;-2.084;2022-08-24T04:08:06;6.30;;;2.80;;
64282;SDS011;50497;50.720;-2.084;2022-08-24T04:10:32;6.07;;;3.00;;
64282;SDS011;50497;50.720;-2.084;2022-08-24T04:12:58;6.60;;;3.00;;
64282;SDS011;50497;50.720;-2.084;2022-08-24T04:15:27;7.00;;;2.60;;
64282;SDS011;50497;50.720;-2.084;2022-08-24T04:20:18;6.23;;;2.60;;
64282;SDS011;50497;50.720;-2.084;2022-08-24T04:22:44;7.32;;;2.75;;
64282;SDS011;50497;50.720;-2.084;2022-08-24T04:25:10;8.23;;;3.08;;
64282;SDS011;50497;50.720;-2.084;2022-08-24T04:27:37;6.70;;;3.13;;
64282;SDS011;50497;50.720;-2.084;2022-08-24T04:30:04;6.45;;;2.88;;
64282;SDS011;50497;50.720;-2.084;2022-08-24T04:32:31;6.65;;;2.85;;
64282;SDS011;50497;50.720;-2.084;2022-08-24T04:37:23;6.03;;;2.72;;
64282;SDS011;50497;50.720;-2.084;2022-08-24T04:39:49;7.97;;;2.80;;
64282;SDS011;50497;50.720;-2.084;2022-08-24T04:42:15;6.22;;;2.70;;
64282;SDS011;50497;50.720;-2.084;2022-08-24T04:44:41;7.05;;;2.72;;
64282;SDS011;50497;50.720;-2.084;2022-08-24T04:47:08;6.25;;;2.38;;
64282;SDS011;50497;50.720;-2.084;2022-08-24T04:52:00;5.60;;;2.25;;
64282;SDS011;50497;50.720;-2.084;2022-08-24T04:56:51;6.63;;;2.20;;
64282;SDS011;50497;50.720;-2.084;2022-08-24T04:59:17;5.25;;;2.08;;
64282;SDS011;50497;50.720;-2.084;2022-08-24T05:01:43;5.50;;;2.30;;
64282;SDS011;50497;50.720;-2.084;2022-08-24T05:04:08;6.28;;;2.40;;
64282;SDS011;50497;50.720;-2.084;2022-08-24T05:06:34;5.60;;;2.33;;
64282;SDS011;50497;50.720;-2.084;2022-08-24T05:09:04;5.97;;;2.00;;
64282;SDS011;50497;50.720;-2.084;2022-08-24T05:11:29;7.10;;;2.30;;
64282;SDS011;50497;50.720;-2.084;2022-08-24T05:13:55;5.90;;;2.20;;
64282;SDS011;50497;50.720;-2.084;2022-08-24T05:16:22;5.13;;;1.67;;
64282;SDS011;50497;50.720;-2.084;2022-08-24T05:18:53;5.28;;;2.20;;
64282;SDS011;50497;50.720;-2.084;2022-08-24T05:21:20;6.60;;;2.63;;
64282;SDS011;50497;50.720;-2.084;2022-08-24T05:23:47;6.07;;;2.33;;
64282;SDS011;50497;50.720;-2.084;2022-08-24T05:26:17;5.70;;;2.42;;
64282;SDS011;50497;50.720;-2.084;2022-08-24T05:28:53;6.18;;;2.55;;
64282;SDS011;50497;50.720;-2.084;2022-08-24T05:31:29;4.72;;;2.15;;
64282;SDS011;50497;50.720;-2.084;2022-08-24T05:33:59;5.60;;;2.42;;
64282;SDS011;50497;50.720;-2.084;2022-08-24T05:36:27;6.07;;;2.60;;
64282;SDS011;50497;50.720;-2.084;2022-08-24T05:38:59;8.27;;;3.00;;
64282;SDS011;50497;50.720;-2.084;2022-08-24T05:41:26;5.43;;;2.58;;
64282;SDS011;50497;50.720;-2.084;2022-08-24T05:43:53;6.00;;;2.45;;
64282;SDS011;50497;50.720;-2.084;2022-08-24T05:46:19;5.35;;;2.30;;
64282;SDS011;50497;50.720;-2.084;2022-08-24T05:48:45;5.65;;;2.40;;
64282;SDS011;50497;50.720;-2.084;2022-08-24T05:51:11;7.13;;;2.80;;
64282;SDS011;50497;50.720;-2.084;2022-08-24T05:53:36;7.32;;;2.55;;
64282;SDS011;50497;50.720;-2.084;2022-08-24T05:56:07;5.32;;;2.38;;
64282;SDS011;50497;50.720;-2.084;2022-08-24T05:58:34;6.15;;;2.70;;
64282;SDS011;50497;50.720;-2.084;2022-08-24T06:01:11;6.47;;;2.70;;
64282;SDS011;50497;50.720;-2.084;2022-08-24T06:03:46;8.70;;;3.00;;
64282;SDS011;50497;50.720;-2.084;2022-08-24T06:06:14;7.53;;;2.90;;
64282;SDS011;50497;50.720;-2.084;2022-08-24T06:08:41;6.95;;;3.15;;
64282;SDS011;50497;50.720;-2.084;2022-08-24T06:11:10;7.47;;;2.78;;
64282;SDS011;50497;50.720;-2.084;2022-08-24T06:13:37;5.78;;;2.55;;
64282;SDS011;50497;50.720;-2.084;2022-08-24T06:16:03;9.27;;;2.80;;
64282;SDS011;50497;50.720;-2.084;2022-08-24T06:18:35;6.40;;;2.70;;
64282;SDS011;50497;50.720;-2.084;2022-08-24T06:21:03;8.23;;;2.78;;
64282;SDS011;50497;50.720;-2.084;2022-08-24T06:23:34;7.60;;;3.05;;
64282;SDS011;50497;50.720;-2.084;2022-08-24T06:26:01;7.28;;;3.13;;
64282;SDS011;50497;50.720;-2.084;2022-08-24T06:28:45;5.95;;;2.55;;
64282;SDS011;50497;50.720;-2.084;2022-08-24T06:31:11;6.00;;;3.00;;
64282;SDS011;50497;50.720;-2.084;2022-08-24T06:33:36;6.13;;;2.90;;
64282;SDS011;50497;50.720;-2.084;2022-08-24T06:36:02;8.20;;;3.35;;
64282;SDS011;50497;50.720;-2.084;2022-08-24T06:38:28;7.85;;;3.80;;
64282;SDS011;50497;50.720;-2.084;2022-08-24T06:40:54;8.75;;;3.70;;
64282;SDS011;50497;50.720;-2.084;2022-08-24T06:43:20;7.43;;;3.80;;
64282;SDS011;50497;50.720;-2.084;2022-08-24T06:45:46;7.10;;;3.65;;
64282;SDS011;50497;50.720;-2.084;2022-08-24T06:48:13;7.15;;;3.30;;
64282;SDS011;50497;50.720;-2.084;2022-08-24T06:50:44;7.15;;;3.25;;
64282;SDS011;50497;50.720;-2.084;2022-08-24T06:53:11;6.82;;;3.30;;
64282;SDS011;50497;50.720;-2.084;2022-08-24T06:55:49;7.05;;;3.40;;
64282;SDS011;50497;50.720;-2.084;2022-08-24T06:58:25;9.43;;;3.90;;
64282;SDS011;50497;50.720;-2.084;2022-08-24T07:00:55;9.70;;;4.03;;
64282;SDS011;50497;50.720;-2.084;2022-08-24T07:03:21;8.95;;;3.50;;
64282;SDS011;50497;50.720;-2.084;2022-08-24T07:05:49;10.38;;;3.75;;
64282;SDS011;50497;50.720;-2.084;2022-08-24T07:08:20;8.45;;;3.80;;
64282;SDS011;50497;50.720;-2.084;2022-08-24T07:10:46;7.13;;;3.60;;
64282;SDS011;50497;50.720;-2.084;2022-08-24T07:13:12;6.97;;;3.13;;
64282;SDS011;50497;50.720;-2.084;2022-08-24T07:15:39;6.95;;;3.53;;
64282;SDS011;50497;50.720;-2.084;2022-08-24T07:18:05;6.93;;;3.30;;
64282;SDS011;50497;50.720;-2.084;2022-08-24T07:20:34;7.10;;;2.95;;
64282;SDS011;50497;50.720;-2.084;2022-08-24T07:23:01;6.22;;;3.13;;
64282;SDS011;50497;50.720;-2.084;2022-08-24T07:25:36;6.10;;;2.85;;
64282;SDS011;50497;50.720;-2.084;2022-08-24T07:28:02;5.50;;;2.67;;
64282;SDS011;50497;50.720;-2.084;2022-08-24T07:30:28;8.02;;;2.85;;
64282;SDS011;50497;50.720;-2.084;2022-08-24T07:32:57;6.80;;;3.13;;
64282;SDS011;50497;50.720;-2.084;2022-08-24T07:35:27;6.75;;;2.95;;
64282;SDS011;50497;50.720;-2.084;2022-08-24T07:37:55;8.38;;;3.50;;
64282;SDS011;50497;50.720;-2.084;2022-08-24T07:40:22;7.63;;;3.60;;
64282;SDS011;50497;50.720;-2.084;2022-08-24T07:42:51;8.50;;;3.40;;
64282;SDS011;50497;50.720;-2.084;2022-08-24T07:45:18;8.18;;;3.53;;
64282;SDS011;50497;50.720;-2.084;2022-08-24T07:47:45;7.45;;;3.35;;
64282;SDS011;50497;50.720;-2.084;2022-08-24T07:50:11;6.47;;;3.40;;
64282;SDS011;50497;50.720;-2.084;2022-08-24T07:52:37;6.93;;;3.30;;
64282;SDS011;50497;50.720;-2.084;2022-08-24T07:55:03;7.53;;;3.30;;
64282;SDS011;50497;50.720;-2.084;2022-08-24T07:57:29;6.63;;;2.90;;
64282;SDS011;50497;50.720;-2.084;2022-08-24T07:59:57;6.53;;;2.85;;
64282;SDS011;50497;50.720;-2.084;2022-08-24T08:02:23;5.95;;;2.72;;
64282;SDS011;50497;50.720;-2.084;2022-08-24T08:04:50;5.65;;;2.53;;
64282;SDS011;50497;50.720;-2.084;2022-08-24T08:07:16;6.30;;;2.90;;
64282;SDS011;50497;50.720;-2.084;2022-08-24T08:09:41;7.18;;;2.90;;
64282;SDS011;50497;50.720;-2.084;2022-08-24T08:12:07;5.68;;;2.58;;
64282;SDS011;50497;50.720;-2.084;2022-08-24T08:14:33;7.00;;;2.70;;
64282;SDS011;50497;50.720;-2.084;2022-08-24T08:16:59;6.50;;;2.70;;
64282;SDS011;50497;50.720;-2.084;2022-08-24T08:19:25;6.95;;;3.30;;
64282;SDS011;50497;50.720;-2.084;2022-08-24T08:21:52;6.80;;;2.85;;
64282;SDS011;50497;50.720;-2.084;2022-08-24T08:24:37;7.13;;;3.08;;
64282;SDS011;50497;50.720;-2.084;2022-08-24T08:27:04;6.57;;;2.92;;
64282;SDS011;50497;50.720;-2.084;2022-08-24T08:29:31;6.85;;;3.30;;
64282;SDS011;50497;50.720;-2.084;2022-08-24T08:31:58;5.82;;;2.90;;
64282;SDS011;50497;50.720;-2.084;2022-08-24T08:34:24;7.95;;;3.47;;
64282;SDS011;50497;50.720;-2.084;2022-08-24T08:39:16;8.55;;;4.20;;
64282;SDS011;50497;50.720;-2.084;2022-08-24T09:03:24;5.50;;;2.60;;
64282;SDS011;50497;50.720;-2.084;2022-08-24T09:06:33;6.00;;;3.05;;
64282;SDS011;50497;50.720;-2.084;2022-08-24T09:09:39;5.60;;;2.65;;
64282;SDS011;50497;50.720;-2.084;2022-08-24T09:26:04;4.30;;;1.90;;
64282;SDS011;50497;50.720;-2.084;2022-08-24T09:34:48;2.83;;;1.30;;
64282;SDS011;50497;50.720;-2.084;2022-08-24T09:40:02;2.78;;;1.20;;
64282;SDS011;50497;50.720;-2.084;2022-08-24T09:46:11;2.60;;;1.50;;
64282;SDS011;50497;50.720;-2.084;2022-08-24T09:54:25;3.25;;;1.50;;
64282;SDS011;50497;50.720;-2.084;2022-08-24T10:05:29;3.17;;;1.60;;
64282;SDS011;50497;50.720;-2.084;2022-08-24T10:22:39;4.40;;;1.85;;
64282;SDS011;50497;50.720;-2.084;2022-08-24T10:25:30;3.85;;;1.88;;
64282;SDS011;50497;50.720;-2.084;2022-08-24T10:33:34;3.45;;;1.75;;
64282;SDS011;50497;50.720;-2.084;2022-08-24T10:38:56;4.40;;;2.10;;
64282;SDS011;50497;50.720;-2.084;2022-08-24T10:42:40;5.13;;;2.20;;
64282;SDS011;50497;50.720;-2.084;2022-08-24T10:45:32;4.68;;;2.30;;
64282;SDS011;50497;50.720;-2.084;2022-08-24T10:54:01;4.97;;;2.30;;
64282;SDS011;50497;50.720;-2.084;2022-08-24T10:56:31;5.18;;;2.08;;
64282;SDS011;50497;50.720;-2.084;2022-08-24T11:01:37;4.65;;;2.10;;
64282;SDS011;50497;50.720;-2.084;2022-08-24T11:04:27;4.20;;;2.00;;
64282;SDS011;50497;50.720;-2.084;2022-08-24T11:09:47;3.70;;;1.90;;
64282;SDS011;50497;50.720;-2.084;2022-08-24T11:12:24;4.13;;;1.70;;
64282;SDS011;50497;50.720;-2.084;2022-08-24T11:14:50;5.43;;;1.88;;
64282;SDS011;50497;50.720;-2.084;2022-08-24T11:17:19;4.63;;;2.20;;
64282;SDS011;50497;50.720;-2.084;2022-08-24T11:19:49;4.43;;;1.95;;
64282;SDS011;50497;50.720;-2.084;2022-08-24T11:22:30;3.58;;;1.80;;
64282;SDS011;50497;50.720;-2.084;2022-08-24T11:25:24;3.72;;;1.50;;
64282;SDS011;50497;50.720;-2.084;2022-08-24T11:27:56;3.38;;;1.60;;
64282;SDS011;50497;50.720;-2.084;2022-08-24T11:30:27;3.42;;;1.60;;
64282;SDS011;50497;50.720;-2.084;2022-08-24T11:32:55;2.88;;;1.60;;
64282;SDS011;50497;50.720;-2.084;2022-08-24T11:38:06;3.80;;;1.80;;
64282;SDS011;50497;50.720;-2.084;2022-08-24T11:40:32;3.65;;;1.75;;
64282;SDS011;50497;50.720;-2.084;2022-08-24T11:56:35;4.25;;;1.58;;
64282;SDS011;50497;50.720;-2.084;2022-08-24T12:02:39;2.42;;;1.50;;
64282;SDS011;50497;50.720;-2.084;2022-08-24T12:08:14;3.33;;;1.65;;
64282;SDS011;50497;50.720;-2.084;2022-08-24T12:11:14;2.72;;;1.50;;
64282;SDS011;50497;50.720;-2.084;2022-08-24T12:14:01;2.67;;;1.48;;
64282;SDS011;50497;50.720;-2.084;2022-08-24T12:21:26;2.95;;;1.52;;
64282;SDS011;50497;50.720;-2.084;2022-08-24T12:24:03;3.22;;;1.40;;
64282;SDS011;50497;50.720;-2.084;2022-08-24T12:32:02;2.53;;;1.50;;
64282;SDS011;50497;50.720;-2.084;2022-08-24T12:37:44;3.75;;;1.60;;
64282;SDS011;50497;50.720;-2.084;2022-08-24T12:43:05;2.67;;;1.48;;
64282;SDS011;50497;50.720;-2.084;2022-08-24T12:45:35;3.15;;;1.40;;
64282;SDS011;50497;50.720;-2.084;2022-08-24T12:48:06;3.10;;;1.50;;
64282;SDS011;50497;50.720;-2.084;2022-08-24T13:01:50;1.88;;;1.10;;
64282;SDS011;50497;50.720;-2.084;2022-08-24T13:09:47;2.30;;;1.20;;
64282;SDS011;50497;50.720;-2.084;2022-08-24T13:17:50;2.30;;;1.20;;
64282;SDS011;50497;50.720;-2.084;2022-08-24T13:59:20;1.13;;;0.90;;
64282;SDS011;50497;50.720;-2.084;2022-08-24T14:02:10;1.20;;;0.90;;
64282;SDS011;50497;50.720;-2.084;2022-08-24T14:13:35;1.77;;;0.90;;
64282;SDS011;50497;50.720;-2.084;2022-08-24T14:16:27;2.50;;;1.10;;
64282;SDS011;50497;50.720;-2.084;2022-08-24T14:25:14;1.73;;;1.00;;
64282;SDS011;50497;50.720;-2.084;2022-08-24T14:27:47;2.92;;;1.10;;
64282;SDS011;50497;50.720;-2.084;2022-08-24T14:40:24;0.98;;;0.80;;
64282;SDS011;50497;50.720;-2.084;2022-08-24T14:48:47;1.95;;;0.80;;
64282;SDS011;50497;50.720;-2.084;2022-08-24T14:57:20;1.95;;;1.00;;
64282;SDS011;50497;50.720;-2.084;2022-08-24T15:07:57;1.60;;;1.00;;
64282;SDS011;50497;50.720;-2.084;2022-08-24T15:13:27;1.77;;;1.00;;
64282;SDS011;50497;50.720;-2.084;2022-08-24T15:16:42;2.42;;;1.10;;
64282;SDS011;50497;50.720;-2.084;2022-08-24T15:19:27;3.40;;;1.10;;
64282;SDS011;50497;50.720;-2.084;2022-08-24T15:25:35;0.70;;;0.70;;
64282;SDS011;50497;50.720;-2.084;2022-08-24T15:27:45;2.17;;;0.90;;
64282;SDS011;50497;50.720;-2.084;2022-08-24T15:30:24;1.92;;;0.95;;
64282;SDS011;50497;50.720;-2.084;2022-08-24T15:33:07;2.40;;;1.17;;
64282;SDS011;50497;50.720;-2.084;2022-08-24T15:35:38;1.50;;;1.00;;
64282;SDS011;50497;50.720;-2.084;2022-08-24T15:38:31;2.92;;;0.98;;
64282;SDS011;50497;50.720;-2.084;2022-08-24T15:41:12;2.05;;;1.00;;
64282;SDS011;50497;50.720;-2.084;2022-08-24T15:46:13;1.92;;;1.00;;
64282;SDS011;50497;50.720;-2.084;2022-08-24T15:48:43;2.80;;;1.10;;
64282;SDS011;50497;50.720;-2.084;2022-08-24T15:51:16;1.55;;;1.00;;
64282;SDS011;50497;50.720;-2.084;2022-08-24T15:53:59;2.17;;;1.00;;
64282;SDS011;50497;50.720;-2.084;2022-08-24T15:56:59;1.00;;;0.82;;
64282;SDS011;50497;50.720;-2.084;2022-08-24T16:04:51;2.17;;;1.10;;
64282;SDS011;50497;50.720;-2.084;2022-08-24T16:08:19;1.58;;;0.93;;
64282;SDS011;50497;50.720;-2.084;2022-08-24T16:10:33;1.27;;;0.90;;
64282;SDS011;50497;50.720;-2.084;2022-08-24T16:13:20;3.33;;;1.05;;
64282;SDS011;50497;50.720;-2.084;2022-08-24T16:15:58;1.98;;;0.80;;
64282;SDS011;50497;50.720;-2.084;2022-08-24T16:18:49;2.40;;;0.90;;
64282;SDS011;50497;50.720;-2.084;2022-08-24T16:21:58;1.45;;;0.90;;
64282;SDS011;50497;50.720;-2.084;2022-08-24T16:32:04;2.25;;;1.05;;
64282;SDS011;50497;50.720;-2.084;2022-08-24T16:37:33;4.25;;;1.58;;
64282;SDS011;50497;50.720;-2.084;2022-08-24T16:40:04;1.92;;;1.08;;
64282;SDS011;50497;50.720;-2.084;2022-08-24T16:42:35;1.77;;;1.00;;
64282;SDS011;50497;50.720;-2.084;2022-08-24T16:45:03;2.10;;;1.17;;
64282;SDS011;50497;50.720;-2.084;2022-08-24T16:47:30;2.67;;;1.10;;
64282;SDS011;50497;50.720;-2.084;2022-08-24T16:49:55;2.03;;;1.10;;
64282;SDS011;50497;50.720;-2.084;2022-08-24T16:52:21;1.88;;;1.10;;
64282;SDS011;50497;50.720;-2.084;2022-08-24T16:54:47;1.83;;;1.10;;
64282;SDS011;50497;50.720;-2.084;2022-08-24T16:57:17;3.47;;;1.20;;
64282;SDS011;50497;50.720;-2.084;2022-08-24T16:59:51;2.67;;;1.20;;
64282;SDS011;50497;50.720;-2.084;2022-08-24T17:02:18;2.47;;;1.20;;
64282;SDS011;50497;50.720;-2.084;2022-08-24T17:04:45;2.75;;;1.17;;
64282;SDS011;50497;50.720;-2.084;2022-08-24T17:07:20;2.35;;;1.20;;
64282;SDS011;50497;50.720;-2.084;2022-08-24T17:09:48;2.25;;;1.25;;
64282;SDS011;50497;50.720;-2.084;2022-08-24T17:12:15;2.78;;;1.20;;
64282;SDS011;50497;50.720;-2.084;2022-08-24T17:14:42;3.47;;;1.40;;
64282;SDS011;50497;50.720;-2.084;2022-08-24T17:17:10;3.33;;;1.45;;
64282;SDS011;50497;50.720;-2.084;2022-08-24T17:19:39;3.00;;;1.20;;
64282;SDS011;50497;50.720;-2.084;2022-08-24T17:22:05;3.13;;;1.30;;
64282;SDS011;50497;50.720;-2.084;2022-08-24T17:24:31;2.47;;;1.20;;
64282;SDS011;50497;50.720;-2.084;2022-08-24T17:26:57;4.72;;;1.55;;
64282;SDS011;50497;50.720;-2.084;2022-08-24T17:29:23;4.88;;;1.90;;
64282;SDS011;50497;50.720;-2.084;2022-08-24T17:31:50;3.08;;;1.30;;
64282;SDS011;50497;50.720;-2.084;2022-08-24T17:34:16;2.28;;;1.10;;
64282;SDS011;50497;50.720;-2.084;2022-08-24T17:36:46;3.10;;;0.93;;
64282;SDS011;50497;50.720;-2.084;2022-08-24T17:39:14;2.63;;;1.13;;
64282;SDS011;50497;50.720;-2.084;2022-08-24T17:41:42;2.05;;;1.10;;
64282;SDS011;50497;50.720;-2.084;2022-08-24T17:44:08;1.90;;;1.13;;
64282;SDS011;50497;50.720;-2.084;2022-08-24T17:46:38;6.65;;;2.15;;
64282;SDS011;50497;50.720;-2.084;2022-08-24T17:49:05;4.78;;;2.17;;
64282;SDS011;50497;50.720;-2.084;2022-08-24T17:51:36;5.10;;;2.20;;
64282;SDS011;50497;50.720;-2.084;2022-08-24T17:54:05;3.65;;;1.40;;
64282;SDS011;50497;50.720;-2.084;2022-08-24T17:56:32;2.97;;;1.00;;
64282;SDS011;50497;50.720;-2.084;2022-08-24T17:59:08;2.30;;;1.10;;
64282;SDS011;50497;50.720;-2.084;2022-08-24T18:01:52;1.60;;;1.00;;
64282;SDS011;50497;50.720;-2.084;2022-08-24T18:04:26;1.52;;;1.00;;
64282;SDS011;50497;50.720;-2.084;2022-08-24T18:07:12;1.40;;;1.00;;
64282;SDS011;50497;50.720;-2.084;2022-08-24T18:09:46;2.45;;;1.27;;
64282;SDS011;50497;50.720;-2.084;2022-08-24T18:12:28;3.25;;;1.10;;
64282;SDS011;50497;50.720;-2.084;2022-08-24T18:14:54;2.83;;;1.40;;
64282;SDS011;50497;50.720;-2.084;2022-08-24T18:17:21;2.05;;;1.10;;
64282;SDS011;50497;50.720;-2.084;2022-08-24T18:19:54;1.95;;;1.08;;
64282;SDS011;50497;50.720;-2.084;2022-08-24T18:22:23;2.67;;;1.23;;
64282;SDS011;50497;50.720;-2.084;2022-08-24T18:24:49;3.35;;;1.20;;
64282;SDS011;50497;50.720;-2.084;2022-08-24T18:27:17;2.05;;;0.90;;
64282;SDS011;50497;50.720;-2.084;2022-08-24T18:29:51;2.20;;;1.10;;
64282;SDS011;50497;50.720;-2.084;2022-08-24T18:32:17;2.30;;;1.10;;
64282;SDS011;50497;50.720;-2.084;2022-08-24T18:34:46;2.78;;;1.17;;
64282;SDS011;50497;50.720;-2.084;2022-08-24T18:37:15;2.03;;;1.00;;
64282;SDS011;50497;50.720;-2.084;2022-08-24T18:39:45;1.80;;;0.80;;
64282;SDS011;50497;50.720;-2.084;2022-08-24T18:42:15;1.92;;;1.00;;
64282;SDS011;50497;50.720;-2.084;2022-08-24T18:44:40;2.40;;;1.02;;
64282;SDS011;50497;50.720;-2.084;2022-08-24T18:47:15;2.67;;;1.10;;
64282;SDS011;50497;50.720;-2.084;2022-08-24T18:49:44;2.33;;;1.10;;
64282;SDS011;50497;50.720;-2.084;2022-08-24T18:52:09;3.15;;;1.20;;
64282;SDS011;50497;50.720;-2.084;2022-08-24T18:54:39;4.07;;;1.40;;
64282;SDS011;50497;50.720;-2.084;2022-08-24T18:57:08;3.00;;;1.25;;
64282;SDS011;50497;50.720;-2.084;2022-08-24T18:59:38;2.03;;;1.20;;
64282;SDS011;50497;50.720;-2.084;2022-08-24T19:02:09;3.85;;;1.40;;
64282;SDS011;50497;50.720;-2.084;2022-08-24T19:04:56;1.85;;;1.08;;
64282;SDS011;50497;50.720;-2.084;2022-08-24T19:07:29;2.13;;;1.20;;
64282;SDS011;50497;50.720;-2.084;2022-08-24T19:09:59;4.97;;;1.50;;
64282;SDS011;50497;50.720;-2.084;2022-08-24T19:12:28;3.17;;;1.20;;
64282;SDS011;50497;50.720;-2.084;2022-08-24T19:14:58;3.45;;;1.30;;
64282;SDS011;50497;50.720;-2.084;2022-08-24T19:17:25;3.30;;;1.52;;
64282;SDS011;50497;50.720;-2.084;2022-08-24T19:22:19;2.30;;;1.23;;
64282;SDS011;50497;50.720;-2.084;2022-08-24T19:27:11;5.38;;;1.70;;
64282;SDS011;50497;50.720;-2.084;2022-08-24T19:32:02;3.50;;;1.70;;
64282;SDS011;50497;50.720;-2.084;2022-08-24T19:34:28;3.50;;;1.60;;
64282;SDS011;50497;50.720;-2.084;2022-08-24T19:39:20;4.13;;;2.03;;
64282;SDS011;50497;50.720;-2.084;2022-08-24T19:44:12;6.15;;;2.40;;
64282;SDS011;50497;50.720;-2.084;2022-08-24T19:46:58;4.68;;;2.08;;
64282;SDS011;50497;50.720;-2.084;2022-08-24T19:51:50;4.32;;;1.83;;
64282;SDS011;50497;50.720;-2.084;2022-08-24T19:54:16;5.45;;;2.15;;
64282;SDS011;50497;50.720;-2.084;2022-08-24T19:56:42;5.75;;;2.30;;